createdAt,value
2022-09-23T00:01:06.392Z,5.97
2022-09-23T00:03:33.905Z,7.70
2022-09-23T00:06:02.143Z,8.43
2022-09-23T00:08:29.450Z,7.22
2022-09-23T00:10:56.754Z,9.38
2022-09-23T00:13:25.453Z,8.38
2022-09-23T00:15:52.567Z,5.57
2022-09-23T00:18:19.349Z,5.43
2022-09-23T00:20:46.296Z,8.57
2022-09-23T00:23:13.073Z,8.50
2022-09-23T00:25:39.778Z,7.57
2022-09-23T00:28:06.495Z,6.22
2022-09-23T00:30:34.606Z,5.70
2022-09-23T00:33:01.490Z,5.53
2022-09-23T00:35:28.206Z,8.25
2022-09-23T00:37:55.011Z,7.32
2022-09-23T00:40:21.826Z,6.32
2022-09-23T00:42:49.666Z,6.72
2022-09-23T00:45:16.948Z,7.78
2022-09-23T00:47:54.404Z,6.00
2022-09-23T00:50:25.902Z,6.25
2022-09-23T00:52:55.817Z,4.78
2022-09-23T00:55:26.768Z,7.45
2022-09-23T00:57:57.486Z,8.15
2022-09-23T01:00:24.691Z,7.80
2022-09-23T01:02:52.817Z,5.93
2022-09-23T01:05:20.054Z,7.28
2022-09-23T01:07:47.336Z,8.68
2022-09-23T01:10:16.645Z,7.05
2022-09-23T01:12:58.363Z,5.43
2022-09-23T01:15:35.029Z,6.50
2022-09-23T01:18:12.102Z,5.20
2022-09-23T01:21:04.108Z,4.93
2022-09-23T01:24:01.862Z,4.95
2022-09-23T01:26:44.766Z,6.55
2022-09-23T01:29:40.718Z,9.95
2022-09-23T01:32:17.782Z,8.00
2022-09-23T01:34:49.393Z,4.10
2022-09-23T01:37:23.576Z,5.43
2022-09-23T01:42:27.511Z,5.88
2022-09-23T01:44:59.123Z,5.15
2022-09-23T01:47:33.228Z,6.30
2022-09-23T01:52:35.768Z,3.97
2022-09-23T01:55:08.432Z,5.73
2022-09-23T01:57:39.025Z,6.93
2022-09-23T02:00:11.275Z,6.75
2022-09-23T02:02:44.397Z,7.05
2022-09-23T02:05:17.499Z,7.65
2022-09-23T02:07:49.232Z,5.13
2022-09-23T02:10:20.953Z,6.97
2022-09-23T02:12:49.408Z,6.38
2022-09-23T02:15:19.134Z,3.75
2022-09-23T02:17:51.037Z,7.80
2022-09-23T02:20:21.928Z,5.97
2022-09-23T02:22:52.929Z,5.50
2022-09-23T02:25:22.941Z,6.88
2022-09-23T02:27:56.859Z,6.63
2022-09-23T02:30:28.347Z,6.65
2022-09-23T02:33:02.556Z,8.27
2022-09-23T02:35:33.415Z,5.70
2022-09-23T02:38:12.287Z,4.53
2022-09-23T02:40:48.316Z,6.70
2022-09-23T02:43:21.305Z,6.10
2022-09-23T02:45:48.765Z,4.07
2022-09-23T02:48:21.858Z,3.55
2022-09-23T02:50:49.211Z,4.68
2022-09-23T02:53:16.057Z,5.30
2022-09-23T02:55:43.250Z,6.50
2022-09-23T02:58:12.851Z,3.03
2022-09-23T03:00:49.133Z,4.05
2022-09-23T03:03:29.695Z,5.97
2022-09-23T03:05:58.575Z,3.70
2022-09-23T03:08:34.573Z,5.88
2022-09-23T03:11:06.091Z,5.88
2022-09-23T03:13:40.889Z,3.78
2022-09-23T03:16:16.045Z,5.20
2022-09-23T03:18:49.882Z,6.50
2022-09-23T03:21:23.486Z,3.63
2022-09-23T03:23:51.056Z,5.95
2022-09-23T03:26:21.889Z,5.68
2022-09-23T03:28:49.687Z,7.38
2022-09-23T03:31:17.367Z,5.25
2022-09-23T03:33:50.736Z,4.63
2022-09-23T03:36:21.986Z,4.90
2022-09-23T03:38:51.527Z,4.03
2022-09-23T03:41:26.097Z,5.15
2022-09-23T03:43:53.388Z,5.38
2022-09-23T03:46:20.105Z,5.18
2022-09-23T03:48:48.160Z,6.32
2022-09-23T03:51:21.219Z,7.18
2022-09-23T03:53:47.984Z,5.20
2022-09-23T03:56:14.863Z,3.70
2022-09-23T03:58:41.605Z,8.35
2022-09-23T04:01:08.372Z,5.22
2022-09-23T04:03:35.156Z,5.07
2022-09-23T04:06:03.296Z,6.80
2022-09-23T04:08:30.068Z,6.10
2022-09-23T04:11:00.354Z,4.97
2022-09-23T04:13:27.139Z,6.97
2022-09-23T04:15:53.994Z,5.40
2022-09-23T04:18:21.173Z,6.45
2022-09-23T04:20:48.085Z,6.88
2022-09-23T04:23:16.333Z,4.95
2022-09-23T04:25:46.660Z,6.97
2022-09-23T04:28:13.430Z,5.82
2022-09-23T04:30:40.236Z,6.32
2022-09-23T04:33:06.998Z,4.57
2022-09-23T04:35:36.728Z,5.65
2022-09-23T04:38:07.219Z,3.70
2022-09-23T04:40:36.064Z,6.25
2022-09-23T04:43:03.056Z,7.85
2022-09-23T04:45:29.790Z,5.03
2022-09-23T04:47:56.657Z,6.05
2022-09-23T04:50:23.416Z,5.45
2022-09-23T04:52:50.116Z,7.10
2022-09-23T04:55:17.065Z,6.53
2022-09-23T04:57:45.209Z,5.53
2022-09-23T05:00:13.133Z,5.85
2022-09-23T05:02:43.240Z,5.95
2022-09-23T05:05:10.043Z,5.35
2022-09-23T05:07:36.918Z,5.07
2022-09-23T05:10:04.607Z,7.00
2022-09-23T05:12:31.299Z,5.40
2022-09-23T05:14:59.429Z,5.57
2022-09-23T05:17:26.212Z,4.47
2022-09-23T05:19:52.922Z,5.93
2022-09-23T05:22:19.654Z,6.55
2022-09-23T05:24:46.376Z,7.10
2022-09-23T05:27:13.056Z,5.50
2022-09-23T05:29:39.924Z,6.40
2022-09-23T05:32:07.972Z,5.78
2022-09-23T05:34:34.704Z,6.93
2022-09-23T05:37:01.454Z,5.35
2022-09-23T05:39:28.147Z,6.18
2022-09-23T05:41:55.000Z,8.63
2022-09-23T05:44:21.737Z,8.50
2022-09-23T05:46:48.582Z,11.25
2022-09-23T05:49:16.695Z,6.50
2022-09-23T05:51:43.507Z,4.82
2022-09-23T05:54:10.623Z,5.43
2022-09-23T05:56:37.714Z,5.55
2022-09-23T05:59:05.842Z,7.72
2022-09-23T06:01:34.453Z,7.93
2022-09-23T06:04:03.714Z,10.25
2022-09-23T06:06:33.598Z,6.97
2022-09-23T06:09:01.192Z,6.53
2022-09-23T06:11:30.693Z,9.27
2022-09-23T06:13:58.608Z,7.03
2022-09-23T06:16:25.434Z,7.90
2022-09-23T06:18:52.278Z,14.38
2022-09-23T06:21:19.220Z,8.13
2022-09-23T06:23:47.359Z,8.90
2022-09-23T06:26:15.634Z,9.50
2022-09-23T06:28:44.496Z,10.07
2022-09-23T06:31:13.856Z,10.48
2022-09-23T06:33:41.706Z,14.73
2022-09-23T06:36:09.096Z,9.27
2022-09-23T06:38:39.142Z,14.80
2022-09-23T06:41:07.429Z,8.95
2022-09-23T06:43:34.262Z,11.50
2022-09-23T06:46:02.570Z,9.55
2022-09-23T06:48:30.268Z,11.20
2022-09-23T06:50:59.718Z,12.10
2022-09-23T06:53:26.440Z,10.65
2022-09-23T06:55:58.573Z,8.75
2022-09-23T06:58:26.665Z,14.35
2022-09-23T07:00:53.500Z,10.55
2022-09-23T07:03:20.231Z,8.88
2022-09-23T07:05:46.915Z,14.30
2022-09-23T07:08:13.648Z,10.32
2022-09-23T07:10:40.360Z,13.02
2022-09-23T07:13:07.246Z,12.50
2022-09-23T07:15:35.384Z,11.07
2022-09-23T07:18:02.090Z,9.90
2022-09-23T07:20:28.865Z,10.98
2022-09-23T07:22:55.736Z,9.40
2022-09-23T07:25:22.613Z,11.48
2022-09-23T07:27:49.323Z,8.77
2022-09-23T07:30:23.376Z,9.82
2022-09-23T07:32:53.085Z,9.50
2022-09-23T07:35:19.933Z,8.52
2022-09-23T07:37:46.652Z,10.63
2022-09-23T07:40:13.568Z,7.55
2022-09-23T07:42:40.481Z,10.07
2022-09-23T07:45:08.740Z,8.23
2022-09-23T07:47:35.542Z,6.38
2022-09-23T07:50:04.190Z,8.80
2022-09-23T07:52:30.939Z,8.10
2022-09-23T07:54:57.683Z,7.72
2022-09-23T07:57:24.529Z,7.22
2022-09-23T07:59:51.284Z,5.50
2022-09-23T08:02:18.078Z,9.95
2022-09-23T08:04:44.854Z,9.48
2022-09-23T08:07:13.435Z,6.55
2022-09-23T08:09:42.475Z,5.93
2022-09-23T08:12:15.211Z,8.50
2022-09-23T08:14:42.991Z,9.23
2022-09-23T08:17:11.206Z,6.85
2022-09-23T08:19:37.927Z,8.68
2022-09-23T08:22:04.901Z,8.65
2022-09-23T08:24:32.956Z,11.32
2022-09-23T08:26:59.753Z,6.72
2022-09-23T08:29:26.499Z,7.63
2022-09-23T08:31:53.938Z,8.85
2022-09-23T08:34:21.941Z,6.28
2022-09-23T08:36:48.918Z,6.72
2022-09-23T08:39:17.074Z,5.13
2022-09-23T08:41:56.105Z,5.70
2022-09-23T08:44:29.790Z,5.32
2022-09-23T08:47:09.380Z,6.20
2022-09-23T08:49:39.657Z,5.60
2022-09-23T08:52:11.830Z,6.35
2022-09-23T08:54:38.640Z,6.38
2022-09-23T08:57:09.360Z,5.35
2022-09-23T08:59:41.540Z,5.13
2022-09-23T09:02:14.484Z,5.38
2022-09-23T09:04:43.488Z,6.43
2022-09-23T09:07:35.798Z,6.97
2022-09-23T09:10:09.672Z,4.38
2022-09-23T09:12:43.122Z,5.97
2022-09-23T09:15:14.300Z,12.20
2022-09-23T09:17:51.021Z,6.22
2022-09-23T09:20:23.760Z,6.20
2022-09-23T09:22:54.327Z,5.95
2022-09-23T09:25:35.540Z,6.68
2022-09-23T09:28:11.038Z,5.72
2022-09-23T09:30:38.267Z,4.70
2022-09-23T09:33:12.393Z,6.05
2022-09-23T09:35:52.643Z,4.85
2022-09-23T09:38:19.512Z,6.13
2022-09-23T09:40:48.005Z,7.43
2022-09-23T09:43:19.231Z,5.93
2022-09-23T09:45:57.963Z,6.50
2022-09-23T09:48:31.572Z,9.32
2022-09-23T09:51:17.494Z,5.80
2022-09-23T09:53:44.152Z,4.45
2022-09-23T09:56:14.129Z,10.57
2022-09-23T09:58:46.841Z,5.47
2022-09-23T10:01:21.631Z,5.00
2022-09-23T10:03:51.344Z,5.40
2022-09-23T10:06:21.672Z,7.00
2022-09-23T10:09:09.239Z,6.68
2022-09-23T10:11:36.729Z,5.53
2022-09-23T10:14:10.740Z,4.75
2022-09-23T10:16:37.537Z,6.22
2022-09-23T10:19:13.786Z,7.82
2022-09-23T10:21:40.776Z,4.22
2022-09-23T10:24:08.326Z,4.43
2022-09-23T10:26:42.017Z,4.90
2022-09-23T10:29:23.981Z,7.25
2022-09-23T10:32:10.754Z,6.30
2022-09-23T10:34:43.076Z,5.55
2022-09-23T10:37:16.598Z,4.25
2022-09-23T10:39:43.838Z,6.30
2022-09-23T10:42:20.333Z,6.40
2022-09-23T10:45:00.489Z,4.43
2022-09-23T10:47:36.930Z,10.75
2022-09-23T10:50:14.569Z,4.22
2022-09-23T10:53:09.029Z,4.60
2022-09-23T10:55:58.511Z,5.50
2022-09-23T10:58:53.346Z,4.18
2022-09-23T11:06:47.789Z,9.70
2022-09-23T11:09:28.995Z,8.00
2022-09-23T11:12:07.052Z,5.63
2022-09-23T11:14:54.937Z,6.25
2022-09-23T11:17:46.158Z,6.53
2022-09-23T11:20:26.196Z,3.88
2022-09-23T11:23:13.471Z,5.85
2022-09-23T11:25:47.137Z,3.72
2022-09-23T11:28:46.275Z,4.82
2022-09-23T11:31:25.559Z,3.33
2022-09-23T11:34:07.187Z,4.20
2022-09-23T11:36:39.676Z,2.85
2022-09-23T11:39:11.759Z,4.10
2022-09-23T11:41:41.304Z,4.72
2022-09-23T11:44:14.773Z,3.25
2022-09-23T11:46:45.069Z,6.07
2022-09-23T11:49:18.793Z,3.97
2022-09-23T11:51:57.060Z,3.05
2022-09-23T11:54:27.948Z,3.67
2022-09-23T11:56:59.067Z,5.40
2022-09-23T11:59:39.582Z,4.45
2022-09-23T12:02:20.626Z,4.93
2022-09-23T12:04:58.705Z,2.70
2022-09-23T12:07:31.035Z,3.90
2022-09-23T12:10:01.989Z,6.55
2022-09-23T12:12:37.526Z,3.50
2022-09-23T12:15:09.324Z,2.00
2022-09-23T12:18:07.716Z,3.15
2022-09-23T12:20:51.810Z,3.65
2022-09-23T12:23:36.956Z,4.60
2022-09-23T12:26:07.617Z,4.40
2022-09-23T12:28:36.780Z,6.05
2022-09-23T12:31:06.250Z,3.05
2022-09-23T12:33:33.816Z,3.20
2022-09-23T12:36:05.759Z,3.72
2022-09-23T12:38:35.033Z,4.18
2022-09-23T12:41:02.839Z,6.72
2022-09-23T12:43:31.552Z,3.28
2022-09-23T12:46:19.672Z,3.92
2022-09-23T12:48:57.505Z,2.67
2022-09-23T12:51:26.540Z,4.43
2022-09-23T12:53:55.801Z,4.65
2022-09-23T12:56:25.920Z,3.30
2022-09-23T12:59:14.325Z,2.85
2022-09-23T13:01:41.470Z,3.72
2022-09-23T13:04:42.304Z,4.55
2022-09-23T13:07:15.812Z,3.17
2022-09-23T13:09:46.563Z,3.45
2022-09-23T13:12:19.160Z,3.85
2022-09-23T13:14:47.069Z,4.60
2022-09-23T13:17:25.883Z,3.67
2022-09-23T13:19:59.626Z,4.72
2022-09-23T13:22:56.152Z,3.55
2022-09-23T13:25:26.900Z,6.97
2022-09-23T13:27:55.860Z,4.70
2022-09-23T13:30:26.497Z,4.55
2022-09-23T13:33:03.674Z,3.88
2022-09-23T13:35:34.509Z,5.72
2022-09-23T13:38:10.054Z,5.20
2022-09-23T13:40:39.592Z,3.17
2022-09-23T13:43:12.298Z,4.53
2022-09-23T13:45:41.690Z,4.35
2022-09-23T13:48:11.524Z,6.05
2022-09-23T13:50:39.618Z,4.90
2022-09-23T13:53:09.095Z,3.78
2022-09-23T13:55:38.774Z,5.32
2022-09-23T13:58:13.811Z,5.15
2022-09-23T14:00:41.008Z,4.03
2022-09-23T14:03:18.627Z,3.53
2022-09-23T14:05:45.963Z,5.57
2022-09-23T14:08:13.026Z,5.95
2022-09-23T14:10:41.287Z,4.95
2022-09-23T14:13:14.578Z,6.97
2022-09-23T14:15:41.344Z,3.73
2022-09-23T14:18:08.354Z,3.47
2022-09-23T14:20:45.690Z,4.32
2022-09-23T14:23:13.518Z,3.53
2022-09-23T14:25:42.885Z,3.00
2022-09-23T14:28:14.124Z,4.90
2022-09-23T14:30:41.167Z,5.18
2022-09-23T14:33:09.675Z,3.42
2022-09-23T14:35:41.209Z,7.03
2022-09-23T14:38:08.315Z,8.45
2022-09-23T14:40:37.802Z,5.95
2022-09-23T14:43:14.429Z,3.53
2022-09-23T14:45:45.087Z,3.92
2022-09-23T14:48:16.456Z,3.60
2022-09-23T14:50:47.945Z,5.30
2022-09-23T14:53:39.111Z,5.85
2022-09-23T14:56:15.188Z,4.55
2022-09-23T14:58:51.745Z,3.15
2022-09-23T15:01:26.258Z,3.65
2022-09-23T15:03:53.150Z,8.02
2022-09-23T15:06:21.986Z,5.32
2022-09-23T15:08:48.908Z,4.82
2022-09-23T15:11:15.632Z,3.88
2022-09-23T15:13:47.871Z,5.25
2022-09-23T15:16:16.606Z,5.40
2022-09-23T15:18:45.214Z,5.00
2022-09-23T15:21:14.490Z,5.82
2022-09-23T15:23:46.049Z,6.05
2022-09-23T15:26:15.625Z,5.28
2022-09-23T15:28:44.116Z,3.92
2022-09-23T15:31:11.705Z,4.15
2022-09-23T15:33:38.471Z,4.78
2022-09-23T15:36:05.608Z,5.03
2022-09-23T15:38:32.428Z,6.18
2022-09-23T15:40:59.204Z,4.47
2022-09-23T15:43:26.091Z,7.00
2022-09-23T15:45:56.691Z,4.47
2022-09-23T15:48:27.355Z,4.65
2022-09-23T15:50:54.688Z,4.57
2022-09-23T15:53:24.382Z,4.25
2022-09-23T15:55:51.096Z,5.72
2022-09-23T15:58:17.866Z,4.78
2022-09-23T16:00:44.938Z,5.10
2022-09-23T16:03:14.436Z,4.20
2022-09-23T16:05:43.914Z,5.32
2022-09-23T16:08:10.745Z,3.15
2022-09-23T16:10:38.217Z,7.75
2022-09-23T16:13:07.405Z,5.10
2022-09-23T16:15:34.501Z,3.22
2022-09-23T16:18:01.660Z,2.88
2022-09-23T16:20:30.255Z,5.43
2022-09-23T16:23:06.493Z,4.70
2022-09-23T16:25:34.524Z,4.22
2022-09-23T16:28:02.072Z,6.90
2022-09-23T16:30:30.917Z,9.95
2022-09-23T16:32:57.649Z,4.93
2022-09-23T16:35:26.369Z,7.07
2022-09-23T16:37:54.663Z,14.95
2022-09-23T16:40:23.113Z,22.10
2022-09-23T16:42:51.610Z,9.60
2022-09-23T16:45:20.122Z,5.75
2022-09-23T16:47:48.365Z,5.85
2022-09-23T16:50:17.220Z,6.53
2022-09-23T16:52:44.397Z,6.07
2022-09-23T16:55:13.565Z,5.70
2022-09-23T16:57:40.911Z,5.65
2022-09-23T17:00:12.847Z,6.10
2022-09-23T17:02:39.698Z,7.97
2022-09-23T17:05:07.036Z,9.27
2022-09-23T17:07:33.745Z,16.48
2022-09-23T17:10:00.424Z,10.40
2022-09-23T17:12:30.867Z,15.40
2022-09-23T17:14:57.600Z,14.35
2022-09-23T17:17:24.330Z,8.50
2022-09-23T17:19:51.050Z,8.63
2022-09-23T17:22:17.895Z,6.57
2022-09-23T17:24:44.621Z,3.58
2022-09-23T17:27:11.392Z,6.28
2022-09-23T17:29:39.531Z,6.22
2022-09-23T17:32:06.229Z,5.93
2022-09-23T17:34:32.989Z,4.13
2022-09-23T17:36:59.702Z,7.60
2022-09-23T17:39:26.449Z,6.22
2022-09-23T17:41:53.185Z,6.03
2022-09-23T17:44:19.912Z,11.23
2022-09-23T17:46:47.973Z,6.72
2022-09-23T17:49:14.724Z,6.22
2022-09-23T17:51:41.421Z,11.38
2022-09-23T17:54:08.211Z,8.07
2022-09-23T17:56:35.053Z,11.40
2022-09-23T17:59:02.235Z,19.40
2022-09-23T18:01:29.476Z,12.32
2022-09-23T18:03:59.451Z,11.52
2022-09-23T18:06:27.695Z,14.13
2022-09-23T18:08:54.901Z,63.35
2022-09-23T18:11:24.013Z,49.65
2022-09-23T18:13:52.452Z,26.13
2022-09-23T18:16:20.669Z,23.60
2022-09-23T18:18:51.664Z,28.50
2022-09-23T18:21:20.309Z,27.23
2022-09-23T18:23:47.765Z,30.00
2022-09-23T18:26:15.061Z,26.25
2022-09-23T18:28:41.827Z,20.67
2022-09-23T18:31:09.165Z,12.70
2022-09-23T18:33:36.070Z,13.43
2022-09-23T18:36:03.419Z,14.80
2022-09-23T18:38:31.895Z,12.20
2022-09-23T18:40:59.389Z,12.68
2022-09-23T18:43:33.781Z,11.05
2022-09-23T18:46:04.730Z,13.45
2022-09-23T18:48:33.020Z,8.55
2022-09-23T18:50:59.700Z,7.70
2022-09-23T18:53:26.540Z,12.13
2022-09-23T18:55:54.677Z,9.52
2022-09-23T18:58:21.368Z,13.27
2022-09-23T19:00:48.107Z,6.82
2022-09-23T19:03:16.530Z,8.50
2022-09-23T19:05:43.223Z,10.93
2022-09-23T19:08:09.927Z,7.90
2022-09-23T19:10:36.617Z,8.23
2022-09-23T19:13:04.689Z,10.50
2022-09-23T19:15:32.619Z,10.90
2022-09-23T19:17:59.471Z,14.52
2022-09-23T19:20:26.180Z,15.82
2022-09-23T19:22:52.975Z,11.23
2022-09-23T19:25:19.704Z,11.18
2022-09-23T19:27:46.616Z,11.45
2022-09-23T19:30:14.812Z,12.52
2022-09-23T19:32:45.318Z,8.77
2022-09-23T19:35:13.703Z,8.65
2022-09-23T19:37:43.660Z,9.77
2022-09-23T19:40:13.550Z,10.95
2022-09-23T19:42:43.467Z,13.00
2022-09-23T19:45:11.015Z,8.05
2022-09-23T19:47:41.434Z,9.35
2022-09-23T19:50:10.662Z,15.98
2022-09-23T19:52:41.140Z,12.93
2022-09-23T19:55:12.610Z,11.82
2022-09-23T19:57:41.278Z,18.38
2022-09-23T20:00:11.428Z,12.18
2022-09-23T20:02:45.370Z,20.45
2022-09-23T20:05:16.247Z,22.70
2022-09-23T20:07:46.493Z,23.58
2022-09-23T20:10:16.911Z,25.48
2022-09-23T20:12:47.071Z,17.95
2022-09-23T20:15:15.097Z,18.35
2022-09-23T20:17:45.122Z,16.63
2022-09-23T20:20:13.817Z,17.05
2022-09-23T20:22:41.736Z,14.07
2022-09-23T20:25:22.215Z,15.50
2022-09-23T20:27:50.581Z,12.15
2022-09-23T20:30:17.489Z,14.80
2022-09-23T20:32:45.597Z,11.80
2022-09-23T20:35:12.304Z,11.88
2022-09-23T20:37:39.213Z,10.05
2022-09-23T20:40:06.776Z,12.25
2022-09-23T20:42:33.529Z,12.73
2022-09-23T20:45:00.273Z,8.77
2022-09-23T20:47:27.084Z,12.32
2022-09-23T20:49:55.143Z,13.82
2022-09-23T20:52:21.932Z,13.77
2022-09-23T20:54:48.681Z,11.48
2022-09-23T20:57:15.389Z,17.80
2022-09-23T20:59:42.121Z,11.88
2022-09-23T21:02:10.237Z,10.90
2022-09-23T21:04:36.998Z,20.45
2022-09-23T21:07:05.056Z,12.65
2022-09-23T21:09:31.739Z,11.93
2022-09-23T21:11:58.498Z,14.50
2022-09-23T21:14:25.196Z,15.32
2022-09-23T21:16:52.059Z,11.98
2022-09-23T21:19:18.817Z,11.55
2022-09-23T21:21:45.526Z,10.60
2022-09-23T21:27:00.417Z,8.02
2022-09-23T21:29:27.139Z,11.35
2022-09-23T21:31:53.941Z,12.98
2022-09-23T21:34:20.778Z,12.48
2022-09-23T21:36:48.025Z,14.75
2022-09-23T21:39:16.241Z,12.27
2022-09-23T21:41:42.931Z,12.23
2022-09-23T21:44:09.749Z,11.52
2022-09-23T21:46:38.002Z,11.35
2022-09-23T21:49:05.314Z,10.55
2022-09-23T21:51:34.625Z,15.40
2022-09-23T21:54:01.418Z,12.32
2022-09-23T21:56:30.957Z,12.48
2022-09-23T21:58:58.832Z,12.25
2022-09-23T22:01:27.125Z,9.68
2022-09-23T22:03:56.079Z,13.75
2022-09-23T22:06:24.561Z,17.50
2022-09-23T22:08:53.983Z,14.93
2022-09-23T22:11:23.021Z,12.65
2022-09-23T22:13:51.064Z,13.05
2022-09-23T22:16:17.813Z,13.40
2022-09-23T22:18:44.592Z,10.32
2022-09-23T22:21:11.301Z,4.38
2022-09-23T22:23:38.068Z,7.30
2022-09-23T22:26:04.774Z,6.90
2022-09-23T22:28:32.563Z,13.75
2022-09-23T22:31:00.701Z,11.55
2022-09-23T22:33:27.437Z,9.73
2022-09-23T22:36:02.719Z,9.73
2022-09-23T22:38:29.626Z,9.18
2022-09-23T22:40:56.479Z,9.50
2022-09-23T22:43:23.397Z,18.80
2022-09-23T22:45:50.515Z,20.15
2022-09-23T22:48:18.595Z,21.80
2022-09-23T22:50:45.426Z,18.90
2022-09-23T22:53:12.189Z,17.67
2022-09-23T22:55:38.897Z,14.40
2022-09-23T22:58:27.616Z,19.75
2022-09-23T23:00:55.394Z,20.75
2022-09-23T23:03:23.568Z,14.35
2022-09-23T23:05:50.686Z,15.82
2022-09-23T23:08:17.431Z,10.75
2022-09-23T23:10:44.138Z,12.38
2022-09-23T23:13:10.847Z,12.43
2022-09-23T23:15:38.093Z,11.55
2022-09-23T23:18:05.340Z,13.68
2022-09-23T23:20:33.518Z,12.18
2022-09-23T23:23:01.918Z,12.05
2022-09-23T23:25:28.764Z,11.25
2022-09-23T23:27:55.784Z,11.57
2022-09-23T23:30:22.588Z,10.65
2022-09-23T23:32:49.341Z,9.63
2022-09-23T23:35:16.554Z,9.82
2022-09-23T23:37:44.620Z,12.00
2022-09-23T23:40:11.526Z,8.20
2022-09-23T23:42:38.290Z,8.85
2022-09-23T23:45:06.001Z,9.88
2022-09-23T23:47:32.715Z,11.77
2022-09-23T23:49:59.399Z,11.68
2022-09-23T23:52:26.138Z,7.75
2022-09-23T23:54:54.215Z,8.40
2022-09-23T23:57:21.106Z,10.32
2022-09-23T23:59:47.908Z,7.55
